createdAt,value
2022-11-05T00:01:53.321Z,101474.63
2022-11-05T00:04:38.444Z,101470.78
2022-11-05T00:07:32.296Z,101478.19
2022-11-05T00:10:02.335Z,101474.34
2022-11-05T00:12:48.309Z,101477.34
2022-11-05T00:15:33.451Z,101486.41
2022-11-05T00:18:00.211Z,101479.88
2022-11-05T00:20:26.638Z,101479.44
2022-11-05T00:23:40.751Z,101487.72
2022-11-05T00:26:08.723Z,101503.72
2022-11-05T00:28:38.968Z,101509.41
2022-11-05T00:31:07.750Z,101504.91
2022-11-05T00:33:35.924Z,101505.47
2022-11-05T00:36:03.325Z,101509.47
2022-11-05T00:38:30.561Z,101511.72
2022-11-05T00:40:57.439Z,101504.53
2022-11-05T00:43:42.893Z,101506.97
2022-11-05T00:46:09.412Z,101513.78
2022-11-05T00:48:55.385Z,101517.91
2022-11-05T00:51:22.253Z,101514.28
2022-11-05T00:53:48.722Z,101519.22
2022-11-05T00:56:15.606Z,101518.25
2022-11-05T00:58:43.183Z,101526.81
2022-11-05T01:01:12.804Z,101525.84
2022-11-05T01:03:39.740Z,101531.84
2022-11-05T01:06:08.702Z,101532.72
2022-11-05T01:08:37.166Z,101532.81
2022-11-05T01:11:08.350Z,101538.06
2022-11-05T01:13:35.141Z,101546.09
2022-11-05T01:16:05.175Z,101542.03
2022-11-05T01:18:32.041Z,101548.31
2022-11-05T01:20:59.813Z,101545.25
2022-11-05T01:23:26.310Z,101559.31
2022-11-05T01:25:53.458Z,101544.75
2022-11-05T01:28:23.109Z,101544.09
2022-11-05T01:30:55.902Z,101555.44
2022-11-05T01:33:22.572Z,101540.84
2022-11-05T01:35:52.119Z,101542.63
2022-11-05T01:38:19.329Z,101543.44
2022-11-05T01:40:47.066Z,101545.13
2022-11-05T01:43:18.507Z,101552.84
2022-11-05T01:45:48.429Z,101558.81
2022-11-05T01:48:27.133Z,101562.22
2022-11-05T01:51:04.629Z,101554.47
2022-11-05T01:53:36.893Z,101558.75
2022-11-05T01:56:06.319Z,101555.28
2022-11-05T01:58:34.986Z,101556.09
2022-11-05T02:01:01.618Z,101552.69
2022-11-05T02:03:29.348Z,101542.31
2022-11-05T02:05:58.043Z,101547.44
2022-11-05T02:08:45.465Z,101544.91
2022-11-05T02:11:17.717Z,101536.25
2022-11-05T02:13:45.087Z,101532.53
2022-11-05T02:16:30.878Z,101534.16
2022-11-05T02:19:03.759Z,101528.00
2022-11-05T02:21:51.053Z,101521.84
2022-11-05T02:24:36.594Z,101534.72
2022-11-05T02:27:12.513Z,101531.19
2022-11-05T02:29:58.148Z,101529.41
2022-11-05T02:32:27.850Z,101531.19
2022-11-05T02:34:59.073Z,101532.00
2022-11-05T02:37:32.462Z,101526.00
2022-11-05T02:40:05.648Z,101527.78
2022-11-05T02:42:50.385Z,101532.13
2022-11-05T02:45:25.734Z,101533.84
2022-11-05T02:47:58.936Z,101536.34
2022-11-05T02:50:44.752Z,101536.34
2022-11-05T02:53:15.200Z,101539.91
2022-11-05T02:55:45.021Z,101530.59
2022-11-05T02:58:14.448Z,101534.00
2022-11-05T03:00:51.611Z,101527.94
2022-11-05T03:03:23.814Z,101526.94
2022-11-05T03:05:56.120Z,101520.91
2022-11-05T03:08:42.891Z,101519.84
2022-11-05T03:11:37.962Z,101526.56
2022-11-05T03:14:19.663Z,101527.16
2022-11-05T03:17:11.017Z,101525.22
2022-11-05T03:19:50.620Z,101523.28
2022-11-05T03:22:22.753Z,101523.09
2022-11-05T03:24:53.467Z,101522.06
2022-11-05T03:27:26.459Z,101526.25
2022-11-05T03:30:01.900Z,101524.41
2022-11-05T03:32:32.329Z,101530.41
2022-11-05T03:35:05.330Z,101533.94
2022-11-05T03:37:35.941Z,101529.59
2022-11-05T03:40:05.927Z,101533.00
2022-11-05T03:42:33.980Z,101536.53
2022-11-05T03:45:04.613Z,101537.53
2022-11-05T03:47:34.791Z,101538.31
2022-11-05T03:50:10.287Z,101533.03
2022-11-05T03:52:40.069Z,101535.63
2022-11-05T03:55:07.237Z,101539.94
2022-11-05T03:57:36.988Z,101541.72
2022-11-05T04:00:08.116Z,101544.22
2022-11-05T04:02:36.412Z,101541.53
2022-11-05T04:05:04.295Z,101544.94
2022-11-05T04:07:49.875Z,101553.53
2022-11-05T04:10:35.524Z,101551.81
2022-11-05T04:13:21.657Z,101556.13
2022-11-05T04:16:07.804Z,101553.53
2022-11-05T04:18:37.488Z,101551.91
2022-11-05T04:21:27.197Z,101553.53
2022-11-05T04:24:15.138Z,101555.31
2022-11-05T04:26:44.298Z,101553.53
2022-11-05T04:29:31.271Z,101556.13
2022-11-05T04:31:59.074Z,101559.56
2022-11-05T04:34:26.247Z,101555.47
2022-11-05T04:36:57.876Z,101560.00
2022-11-05T04:39:28.406Z,101563.63
2022-11-05T04:41:57.743Z,101561.28
2022-11-05T04:44:25.328Z,101560.91
2022-11-05T04:46:53.938Z,101556.91
2022-11-05T04:49:21.518Z,101557.16
2022-11-05T04:51:48.677Z,101564.19
2022-11-05T04:54:15.085Z,101566.78
2022-11-05T04:56:42.279Z,101574.56
2022-11-05T04:59:09.453Z,101570.31
2022-11-05T05:01:37.535Z,101577.22
2022-11-05T05:04:04.298Z,101581.59
2022-11-05T05:06:30.717Z,101568.72
2022-11-05T05:09:00.643Z,101569.69
2022-11-05T05:11:28.005Z,101563.63
2022-11-05T05:13:57.143Z,101561.03
2022-11-05T05:16:27.707Z,101569.69
2022-11-05T05:18:54.726Z,101571.47
2022-11-05T05:21:41.380Z,101566.47
2022-11-05T05:24:10.966Z,101566.59
2022-11-05T05:26:38.287Z,101573.56
2022-11-05T05:29:05.929Z,101582.31
2022-11-05T05:31:34.190Z,101585.13
2022-11-05T05:34:07.425Z,101581.00
2022-11-05T05:36:33.972Z,101572.56
2022-11-05T05:39:02.527Z,101576.94
2022-11-05T05:41:29.376Z,101569.88
2022-11-05T05:43:57.418Z,101571.44
2022-11-05T05:46:24.921Z,101578.97
2022-11-05T05:48:52.625Z,101582.97
2022-11-05T05:51:19.319Z,101582.72
2022-11-05T05:53:46.658Z,101582.41
2022-11-05T05:56:15.419Z,101581.22
2022-11-05T05:58:42.062Z,101587.66
2022-11-05T06:01:18.940Z,101584.75
2022-11-05T06:03:46.123Z,101588.81
2022-11-05T06:06:14.894Z,101590.44
2022-11-05T06:08:42.004Z,101591.88
2022-11-05T06:11:08.747Z,101596.91
2022-11-05T06:13:39.355Z,101602.81
2022-11-05T06:16:08.824Z,101604.31
2022-11-05T06:18:37.166Z,101609.28
2022-11-05T06:21:11.103Z,101604.78
2022-11-05T06:23:42.072Z,101609.00
2022-11-05T06:26:12.422Z,101604.56
2022-11-05T06:28:42.156Z,101607.06
2022-11-05T06:31:09.487Z,101613.91
2022-11-05T06:33:40.214Z,101608.75
2022-11-05T06:36:07.676Z,101611.25
2022-11-05T06:38:36.354Z,101617.31
2022-11-05T06:41:09.824Z,101607.06
2022-11-05T06:43:39.806Z,101602.69
2022-11-05T06:46:14.776Z,101607.06
2022-11-05T06:48:41.863Z,101606.34
2022-11-05T06:51:16.418Z,101611.78
2022-11-05T06:53:43.639Z,101617.25
2022-11-05T06:56:11.887Z,101617.59
2022-11-05T06:58:38.858Z,101612.13
2022-11-05T07:01:09.490Z,101620.38
2022-11-05T07:03:40.103Z,101631.22
2022-11-05T07:06:09.289Z,101629.03
2022-11-05T07:08:36.580Z,101628.47
2022-11-05T07:11:04.214Z,101639.00
2022-11-05T07:13:31.007Z,101642.53
2022-11-05T07:15:58.227Z,101653.06
2022-11-05T07:18:25.493Z,101642.88
2022-11-05T07:20:52.508Z,101648.19
2022-11-05T07:23:19.263Z,101644.16
2022-11-05T07:25:50.710Z,101636.44
2022-11-05T07:28:17.965Z,101637.63
2022-11-05T07:30:44.501Z,101638.00
2022-11-05T07:33:12.075Z,101635.88
2022-11-05T07:35:39.014Z,101635.63
2022-11-05T07:38:06.760Z,101637.41
2022-11-05T07:40:33.272Z,101649.28
2022-11-05T07:43:01.281Z,101650.44
2022-11-05T07:45:29.748Z,101649.34
2022-11-05T07:47:58.060Z,101637.69
2022-11-05T07:50:27.094Z,101638.56
2022-11-05T07:52:54.256Z,101644.59
2022-11-05T07:55:21.610Z,101646.75
2022-11-05T07:57:49.599Z,101655.94
2022-11-05T08:00:18.141Z,101657.94
2022-11-05T08:03:38.701Z,101661.03
2022-11-05T08:10:11.562Z,101656.38
2022-11-05T08:13:19.468Z,101655.72
2022-11-05T08:15:46.004Z,101660.72
2022-11-05T08:18:15.098Z,101655.53
2022-11-05T08:20:47.617Z,101656.16
2022-11-05T08:23:14.799Z,101654.19
2022-11-05T08:25:46.266Z,101654.06
2022-11-05T08:28:13.676Z,101650.28
2022-11-05T08:30:40.642Z,101649.97
2022-11-05T08:33:10.078Z,101655.06
2022-11-05T08:35:37.436Z,101648.56
2022-11-05T08:38:05.553Z,101643.59
2022-11-05T08:40:33.567Z,101648.31
2022-11-05T08:43:05.765Z,101645.50
2022-11-05T08:45:33.369Z,101653.22
2022-11-05T08:48:04.835Z,101655.41
2022-11-05T08:50:32.550Z,101658.06
2022-11-05T08:56:12.008Z,101668.44
2022-11-05T08:58:39.353Z,101666.56
2022-11-05T09:01:14.630Z,101661.34
2022-11-05T09:03:41.231Z,101660.69
2022-11-05T09:06:12.117Z,101654.78
2022-11-05T09:08:38.717Z,101657.00
2022-11-05T09:11:05.367Z,101666.34
2022-11-05T09:13:36.199Z,101661.75
2022-11-05T09:16:53.249Z,101662.94
2022-11-05T09:19:23.263Z,101660.59
2022-11-05T09:24:31.014Z,101648.59
2022-11-05T09:26:57.904Z,101659.31
2022-11-05T09:29:25.121Z,101661.88
2022-11-05T09:31:51.625Z,101661.09
2022-11-05T09:34:18.646Z,101656.78
2022-11-05T09:36:47.643Z,101656.75
2022-11-05T09:39:14.410Z,101654.31
2022-11-05T09:41:41.864Z,101660.56
2022-11-05T09:44:29.370Z,101655.38
2022-11-05T09:46:58.962Z,101662.50
2022-11-05T09:49:42.358Z,101663.16
2022-11-05T09:52:17.065Z,101665.66
2022-11-05T09:54:44.363Z,101677.59
2022-11-05T09:57:13.646Z,101664.06
2022-11-05T09:59:47.293Z,101668.66
2022-11-05T10:02:16.935Z,101674.56
2022-11-05T10:04:45.302Z,101680.38
2022-11-05T10:07:14.751Z,101683.16
2022-11-05T10:09:47.804Z,101688.41
2022-11-05T10:12:21.970Z,101686.78
2022-11-05T10:15:08.807Z,101682.78
2022-11-05T10:17:39.201Z,101683.63
2022-11-05T10:20:08.714Z,101681.13
2022-11-05T10:22:35.540Z,101676.84
2022-11-05T10:25:02.278Z,101686.56
2022-11-05T10:27:38.285Z,101695.81
2022-11-05T10:30:05.268Z,101686.03
2022-11-05T10:32:34.788Z,101685.56
2022-11-05T10:35:02.654Z,101693.47
2022-11-05T10:37:33.480Z,101694.97
2022-11-05T10:40:01.590Z,101696.22
2022-11-05T10:42:28.069Z,101692.44
2022-11-05T10:45:12.843Z,101690.63
2022-11-05T10:47:45.328Z,101693.78
2022-11-05T10:50:13.524Z,101695.31
2022-11-05T10:52:42.958Z,101690.75
2022-11-05T10:55:35.750Z,101685.31
2022-11-05T10:58:10.257Z,101690.31
2022-11-05T11:00:37.075Z,101699.63
2022-11-05T11:03:05.676Z,101706.44
2022-11-05T11:05:33.635Z,101702.06
2022-11-05T11:08:02.238Z,101702.81
2022-11-05T11:10:30.925Z,101696.69
2022-11-05T11:12:58.363Z,101699.03
2022-11-05T11:15:27.535Z,101705.03
2022-11-05T11:17:56.575Z,101694.47
2022-11-05T11:20:31.277Z,101693.56
2022-11-05T11:23:03.712Z,101696.19
2022-11-05T11:25:45.840Z,101698.88
2022-11-05T11:28:21.459Z,101694.47
2022-11-05T11:31:08.116Z,101697.13
2022-11-05T11:33:37.727Z,101695.44
2022-11-05T11:36:05.085Z,101697.19
2022-11-05T11:38:34.168Z,101695.31
2022-11-05T11:41:03.933Z,101689.22
2022-11-05T11:43:34.448Z,101694.50
2022-11-05T11:46:06.054Z,101703.31
2022-11-05T11:48:35.684Z,101706.94
2022-11-05T11:51:15.976Z,101696.47
2022-11-05T11:53:43.374Z,101699.09
2022-11-05T11:56:20.364Z,101693.66
2022-11-05T11:59:02.747Z,101691.91
2022-11-05T12:01:41.712Z,101689.19
2022-11-05T12:04:11.367Z,101684.81
2022-11-05T12:06:57.416Z,101684.75
2022-11-05T12:09:30.833Z,101676.91
2022-11-05T12:12:05.585Z,101680.38
2022-11-05T12:14:46.247Z,101677.81
2022-11-05T12:17:13.422Z,101681.34
2022-11-05T12:19:48.799Z,101688.44
2022-11-05T12:22:15.431Z,101686.81
2022-11-05T12:25:02.121Z,101679.25
2022-11-05T12:27:38.749Z,101680.47
2022-11-05T12:30:11.565Z,101675.56
2022-11-05T12:32:44.930Z,101675.66
2022-11-05T12:35:24.309Z,101670.50
2022-11-05T12:38:15.310Z,101675.84
2022-11-05T12:41:07.098Z,101671.88
2022-11-05T12:43:34.370Z,101661.88
2022-11-05T12:46:19.814Z,101660.25
2022-11-05T12:48:53.549Z,101652.25
2022-11-05T12:51:27.975Z,101656.50
2022-11-05T12:54:10.715Z,101655.56
2022-11-05T12:56:47.698Z,101657.13
2022-11-05T12:59:21.672Z,101653.59
2022-11-05T13:02:11.627Z,101651.81
2022-11-05T13:04:44.945Z,101646.44
2022-11-05T13:07:15.778Z,101640.22
2022-11-05T13:09:49.989Z,101634.06
2022-11-05T13:12:18.942Z,101632.34
2022-11-05T13:14:46.540Z,101640.06
2022-11-05T13:17:40.073Z,101637.41
2022-11-05T13:20:17.401Z,101631.19
2022-11-05T13:22:53.335Z,101620.59
2022-11-05T13:25:25.549Z,101622.22
2022-11-05T13:27:56.902Z,101611.69
2022-11-05T13:30:28.450Z,101607.22
2022-11-05T13:33:04.704Z,101597.63
2022-11-05T13:35:34.960Z,101605.50
2022-11-05T13:38:23.555Z,101593.38
2022-11-05T13:41:12.477Z,101590.75
2022-11-05T13:43:50.022Z,101597.00
2022-11-05T13:46:42.554Z,101604.97
2022-11-05T13:49:13.833Z,101605.94
2022-11-05T13:52:06.548Z,101610.25
2022-11-05T13:54:48.310Z,101607.63
2022-11-05T13:57:23.144Z,101596.22
2022-11-05T14:00:13.158Z,101591.88
2022-11-05T14:02:45.178Z,101601.31
2022-11-05T14:05:32.465Z,101598.66
2022-11-05T14:08:13.520Z,101611.56
2022-11-05T14:10:56.986Z,101601.91
2022-11-05T14:13:25.945Z,101603.53
2022-11-05T14:15:58.087Z,101607.75
2022-11-05T14:18:24.457Z,101610.38
2022-11-05T14:20:59.019Z,101606.84
2022-11-05T14:23:26.110Z,101604.25
2022-11-05T14:25:54.570Z,101605.09
2022-11-05T14:28:39.285Z,101607.72
2022-11-05T14:31:40.997Z,101604.13
2022-11-05T14:34:10.659Z,101604.03
2022-11-05T14:36:40.777Z,101603.06
2022-11-05T14:39:25.251Z,101600.44
2022-11-05T14:42:00.773Z,101602.91
2022-11-05T14:44:28.887Z,101598.34
2022-11-05T14:46:58.363Z,101599.03
2022-11-05T14:49:30.853Z,101602.38
2022-11-05T14:51:59.472Z,101600.47
2022-11-05T14:54:36.772Z,101604.72
2022-11-05T14:57:03.758Z,101597.59
2022-11-05T14:59:33.951Z,101592.28
2022-11-05T15:02:10.459Z,101601.78
2022-11-05T15:04:40.804Z,101604.28
2022-11-05T15:07:12.471Z,101605.94
2022-11-05T15:10:12.404Z,101608.50
2022-11-05T15:13:00.468Z,101610.25
2022-11-05T15:16:05.392Z,101604.97
2022-11-05T15:24:32.967Z,101603.00
2022-11-05T15:27:05.566Z,101597.75
2022-11-05T15:29:33.019Z,101594.22
2022-11-05T15:31:59.936Z,101595.03
2022-11-05T15:34:31.886Z,101597.59
2022-11-05T15:37:01.141Z,101590.59
2022-11-05T15:39:33.934Z,101588.84
2022-11-05T15:42:04.925Z,101592.25
2022-11-05T15:44:38.940Z,101585.22
2022-11-05T15:47:24.412Z,101585.97
2022-11-05T15:49:51.106Z,101584.16
2022-11-05T15:52:19.696Z,101585.00
2022-11-05T15:54:46.291Z,101584.94
2022-11-05T15:57:28.623Z,101580.53
2022-11-05T15:59:55.300Z,101576.91
2022-11-05T16:02:28.722Z,101576.88
2022-11-05T16:04:56.364Z,101571.47
2022-11-05T16:07:23.736Z,101572.34
2022-11-05T16:09:52.145Z,101574.06
2022-11-05T16:12:21.467Z,101571.47
2022-11-05T16:14:58.700Z,101567.91
2022-11-05T16:17:27.099Z,101568.75
2022-11-05T16:19:54.306Z,101578.22
2022-11-05T16:22:21.490Z,101569.50
2022-11-05T16:24:48.495Z,101577.31
2022-11-05T16:27:20.027Z,101572.94
2022-11-05T16:32:51.770Z,101557.13
2022-11-05T16:35:40.287Z,101560.59
2022-11-05T16:38:06.879Z,101561.41
2022-11-05T16:40:34.026Z,101555.38
2022-11-05T16:43:14.566Z,101556.19
2022-11-05T16:45:41.793Z,101554.41
2022-11-05T16:48:11.812Z,101554.31
2022-11-05T16:50:40.226Z,101563.03
2022-11-05T16:53:12.211Z,101564.81
2022-11-05T16:55:40.977Z,101562.19
2022-11-05T17:04:26.615Z,101566.50
2022-11-05T17:07:30.230Z,101569.06
2022-11-05T17:09:58.894Z,101571.59
2022-11-05T17:12:28.380Z,101570.75
2022-11-05T17:14:59.874Z,101559.41
2022-11-05T17:17:26.782Z,101567.22
2022-11-05T17:20:05.932Z,101564.56
2022-11-05T17:22:36.173Z,101563.63
2022-11-05T17:25:02.630Z,101563.63
2022-11-05T17:27:29.616Z,101569.75
2022-11-05T17:29:58.804Z,101568.84
2022-11-05T17:32:26.168Z,101567.13
2022-11-05T17:34:54.862Z,101561.06
2022-11-05T17:37:21.484Z,101563.72
2022-11-05T17:40:03.485Z,101555.00
2022-11-05T17:51:37.236Z,101576.84
2022-11-05T17:54:33.767Z,101589.03
2022-11-05T17:57:19.119Z,101590.78
2022-11-05T17:59:48.985Z,101590.81
2022-11-05T18:20:18.924Z,101580.47
2022-11-05T18:26:15.793Z,101570.72
2022-11-05T18:28:47.438Z,101573.19
2022-11-05T18:31:26.795Z,101571.34
2022-11-05T18:34:34.302Z,101556.41
2022-11-05T18:36:56.688Z,101555.44
2022-11-05T18:39:32.741Z,101558.91
2022-11-05T18:42:17.722Z,101566.69
2022-11-05T18:44:55.974Z,101557.94
2022-11-05T18:47:22.567Z,101556.19
2022-11-05T18:49:49.100Z,101544.03
2022-11-05T18:52:16.771Z,101547.53
2022-11-05T18:54:44.458Z,101547.47
2022-11-05T18:57:16.074Z,101548.41
2022-11-05T18:59:47.880Z,101558.91
2022-11-05T19:02:15.129Z,101540.66
2022-11-05T19:04:55.329Z,101544.06
2022-11-05T19:07:29.335Z,101534.47
2022-11-05T19:10:01.915Z,101526.66
2022-11-05T19:12:28.568Z,101517.09
2022-11-05T19:15:00.928Z,101516.22
2022-11-05T19:17:29.578Z,101530.22
2022-11-05T19:19:58.740Z,101530.16
2022-11-05T19:22:26.085Z,101525.00
2022-11-05T19:24:52.721Z,101517.16
2022-11-05T19:27:20.084Z,101508.50
2022-11-05T19:29:49.412Z,101507.53
2022-11-05T19:32:16.114Z,101493.53
2022-11-05T19:34:46.570Z,101486.44
2022-11-05T19:37:13.527Z,101474.13
2022-11-05T19:39:41.660Z,101475.78
2022-11-05T19:42:09.352Z,101472.31
2022-11-05T19:44:36.334Z,101488.78
2022-11-05T19:47:07.068Z,101489.63
2022-11-05T19:49:33.933Z,101494.72
2022-11-05T19:52:00.739Z,101491.25
2022-11-05T19:54:27.247Z,101495.56
2022-11-05T19:56:55.170Z,101500.00
2022-11-05T20:02:41.825Z,101495.78
2022-11-05T20:05:09.279Z,101499.31
2022-11-05T20:07:40.695Z,101501.13
2022-11-05T20:10:07.965Z,101494.22
2022-11-05T20:12:35.756Z,101492.44
2022-11-05T20:15:03.757Z,101496.81
2022-11-05T20:17:31.306Z,101493.31
2022-11-05T20:20:00.729Z,101502.03
2022-11-05T20:22:27.455Z,101491.53
2022-11-05T20:24:53.885Z,101484.50
2022-11-05T20:27:20.608Z,101480.09
2022-11-05T20:29:48.028Z,101484.41
2022-11-05T20:32:16.904Z,101482.59
2022-11-05T20:34:44.933Z,101479.94
2022-11-05T20:37:12.116Z,101478.22
2022-11-05T20:39:38.834Z,101475.56
2022-11-05T20:42:05.843Z,101484.22
2022-11-05T20:44:32.403Z,101490.31
2022-11-05T20:46:58.897Z,101486.84
2022-11-05T20:49:26.182Z,101490.34
2022-11-05T20:51:52.692Z,101475.63
2022-11-05T20:54:19.478Z,101475.56
2022-11-05T20:56:46.152Z,101479.94
2022-11-05T20:59:13.494Z,101478.16
2022-11-05T21:01:41.613Z,101484.22
2022-11-05T21:04:08.264Z,101471.09
2022-11-05T21:06:36.164Z,101498.03
2022-11-05T21:09:04.584Z,101484.97
2022-11-05T21:11:51.800Z,101487.47
2022-11-05T21:14:20.092Z,101495.13
2022-11-05T21:16:56.796Z,101481.09
2022-11-05T21:19:30.989Z,101486.31
2022-11-05T21:21:59.229Z,101491.38
2022-11-05T21:24:26.959Z,101489.56
2022-11-05T21:26:55.477Z,101491.22
2022-11-05T21:29:26.390Z,101490.22
2022-11-05T21:32:01.018Z,101485.81
2022-11-05T21:34:37.378Z,101487.50
2022-11-05T21:37:21.648Z,101483.16
2022-11-05T21:39:50.197Z,101481.34
2022-11-05T21:42:17.515Z,101494.34
2022-11-05T21:44:44.495Z,101486.53
2022-11-05T21:47:18.315Z,101478.78
2022-11-05T21:49:48.999Z,101467.63
2022-11-05T21:52:38.982Z,101466.81
2022-11-05T21:58:39.770Z,101466.09
2022-11-05T22:01:10.682Z,101461.78
2022-11-05T22:03:43.144Z,101468.81
2022-11-05T22:06:09.860Z,101460.16
2022-11-05T22:08:48.233Z,101465.34
2022-11-05T22:11:40.681Z,101471.53
2022-11-05T22:14:19.145Z,101452.44
2022-11-05T22:16:46.100Z,101458.63
2022-11-05T22:19:13.213Z,101456.00
2022-11-05T22:21:40.307Z,101457.78
2022-11-05T22:24:08.356Z,101446.47
2022-11-05T22:26:36.894Z,101442.97
2022-11-05T22:29:04.863Z,101442.97
2022-11-05T22:31:38.128Z,101440.38
2022-11-05T22:34:08.739Z,101424.72
2022-11-05T22:36:35.961Z,101428.06
2022-11-05T22:39:06.307Z,101425.41
2022-11-05T22:41:32.868Z,101420.13
2022-11-05T22:44:01.035Z,101421.03
2022-11-05T22:46:28.083Z,101420.19
2022-11-05T22:48:56.622Z,101420.25
2022-11-05T22:51:26.274Z,101423.75
2022-11-05T22:54:02.955Z,101430.72
2022-11-05T22:56:31.858Z,101433.28
2022-11-05T22:59:00.173Z,101431.56
2022-11-05T23:01:35.619Z,101430.63
2022-11-05T23:04:05.432Z,101418.38
2022-11-05T23:06:51.148Z,101427.09
2022-11-05T23:09:57.995Z,101424.50
2022-11-05T23:12:35.429Z,101418.53
2022-11-05T23:15:02.979Z,101414.13
2022-11-05T23:18:09.668Z,101407.22
2022-11-05T23:20:58.668Z,101404.59
2022-11-05T23:24:28.547Z,101400.22
2022-11-05T23:27:00.463Z,101395.81
2022-11-05T23:29:28.655Z,101396.66
2022-11-05T23:32:21.379Z,101398.34
2022-11-05T23:34:51.399Z,101393.88
2022-11-05T23:37:49.465Z,101390.31
2022-11-05T23:41:01.790Z,101389.41
2022-11-05T23:44:03.669Z,101389.34
2022-11-05T23:46:51.140Z,101398.84
2022-11-05T23:49:40.086Z,101395.31
2022-11-05T23:52:12.926Z,101398.72
2022-11-05T23:54:51.644Z,101394.34
2022-11-05T23:57:23.300Z,101382.97
2022-11-05T23:59:53.101Z,101381.22
